createdAt,value
2017-03-10T00:00:45.386Z,0
2017-03-10T00:01:55.225Z,0
2017-03-10T00:03:04.688Z,0
2017-03-10T00:04:13.378Z,0
2017-03-10T00:05:22.091Z,0
2017-03-10T00:06:31.112Z,0
2017-03-10T00:07:40.204Z,0
2017-03-10T00:08:48.894Z,0
2017-03-10T00:09:58.733Z,0
2017-03-10T00:11:08.196Z,0
2017-03-10T00:12:17.288Z,0
2017-03-10T00:13:27.124Z,0
2017-03-10T00:14:36.191Z,0
2017-03-10T00:15:45.296Z,0
2017-03-10T00:16:54.757Z,0
2017-03-10T00:18:03.732Z,0
2017-03-10T00:19:12.801Z,0
2017-03-10T00:20:21.871Z,0
2017-03-10T00:21:31.365Z,0
2017-03-10T00:22:40.477Z,0
2017-03-10T00:23:49.979Z,0
2017-03-10T00:24:59.437Z,0
2017-03-10T00:26:08.535Z,0
2017-03-10T00:27:17.226Z,0
2017-03-10T00:28:26.694Z,0
2017-03-10T00:29:36.855Z,0
2017-03-10T00:30:45.914Z,0
2017-03-10T00:31:55.743Z,0
2017-03-10T00:33:05.582Z,0
2017-03-10T00:34:14.647Z,0
2017-03-10T00:35:23.337Z,0
2017-03-10T00:36:33.200Z,0
2017-03-10T00:37:42.654Z,0
2017-03-10T00:38:51.347Z,0
2017-03-10T00:40:01.481Z,0
2017-03-10T00:41:11.333Z,0
2017-03-10T00:42:21.556Z,0
2017-03-10T00:43:30.641Z,0
2017-03-10T00:44:39.715Z,0
2017-03-10T00:45:48.793Z,0
2017-03-10T00:46:57.862Z,0
2017-03-10T00:48:06.940Z,0
2017-03-10T00:49:16.766Z,0
2017-03-10T00:50:25.864Z,0
2017-03-10T00:51:34.561Z,0
2017-03-10T00:52:44.406Z,0
2017-03-10T00:53:53.879Z,0
2017-03-10T00:55:03.720Z,0
2017-03-10T00:56:13.549Z,0
2017-03-10T00:57:23.406Z,0
2017-03-10T00:58:32.474Z,0
2017-03-10T00:59:41.177Z,0
2017-03-10T01:00:51.072Z,0
2017-03-10T01:02:01.159Z,0
2017-03-10T01:03:10.228Z,0
2017-03-10T01:04:19.684Z,0
2017-03-10T01:05:29.153Z,0
2017-03-10T01:06:38.601Z,0
2017-03-10T01:07:47.304Z,0
2017-03-10T01:08:57.517Z,0
2017-03-10T01:10:07.369Z,0
2017-03-10T01:11:16.848Z,0
2017-03-10T01:12:25.912Z,0
2017-03-10T01:13:36.375Z,0
2017-03-10T01:14:45.813Z,0
2017-03-10T01:15:55.296Z,0
2017-03-10T01:17:05.537Z,0
2017-03-10T01:18:14.246Z,0
2017-03-10T01:19:24.096Z,0
2017-03-10T01:20:33.200Z,0
2017-03-10T01:21:43.050Z,0
2017-03-10T01:22:52.508Z,0
2017-03-10T01:24:02.349Z,0
2017-03-10T01:25:11.807Z,0
2017-03-10T01:26:20.891Z,0
2017-03-10T01:27:29.964Z,0
2017-03-10T01:28:38.666Z,0
2017-03-10T01:29:47.731Z,0
2017-03-10T01:30:57.808Z,0
2017-03-10T01:32:06.897Z,0
2017-03-10T01:33:16.382Z,0
2017-03-10T01:34:25.837Z,0
2017-03-10T01:35:35.304Z,0
2017-03-10T01:36:44.754Z,0
2017-03-10T01:37:53.830Z,0
2017-03-10T01:39:04.434Z,0
2017-03-10T01:40:13.525Z,0
2017-03-10T01:41:22.598Z,0
2017-03-10T01:42:31.918Z,0
2017-03-10T01:43:41.392Z,0
2017-03-10T01:44:50.871Z,0
2017-03-10T01:46:01.107Z,0
2017-03-10T01:47:10.557Z,0
2017-03-10T01:48:20.009Z,0
2017-03-10T01:49:29.843Z,0
2017-03-10T01:50:39.297Z,0
2017-03-10T01:51:48.368Z,0
2017-03-10T01:52:57.878Z,0
2017-03-10T01:54:06.971Z,0
2017-03-10T01:55:16.442Z,0
2017-03-10T01:56:25.913Z,0
2017-03-10T01:57:35.391Z,0
2017-03-10T01:58:45.229Z,0
2017-03-10T01:59:54.557Z,0
2017-03-10T02:01:03.255Z,0
2017-03-10T02:02:13.137Z,0
2017-03-10T02:03:22.212Z,0
2017-03-10T02:04:32.054Z,0
2017-03-10T02:05:41.505Z,0
2017-03-10T02:06:51.335Z,0
2017-03-10T02:08:00.830Z,0
2017-03-10T02:09:09.516Z,0
2017-03-10T02:10:18.993Z,0
2017-03-10T02:11:29.078Z,0
2017-03-10T02:12:38.169Z,0
2017-03-10T02:13:46.847Z,0
2017-03-10T02:14:55.953Z,0
2017-03-10T02:16:05.395Z,0
2017-03-10T02:17:14.474Z,0
2017-03-10T02:18:23.925Z,0
2017-03-10T02:19:33.392Z,0
2017-03-10T02:20:42.523Z,0
2017-03-10T02:21:51.997Z,0
2017-03-10T02:23:01.828Z,0
2017-03-10T02:24:10.918Z,0
2017-03-10T02:25:20.381Z,0
2017-03-10T02:26:29.482Z,0
2017-03-10T02:27:38.553Z,0
2017-03-10T02:28:48.646Z,0
2017-03-10T02:29:58.152Z,0
2017-03-10T02:31:07.237Z,0
2017-03-10T02:32:17.489Z,0
2017-03-10T02:33:26.566Z,0
2017-03-10T02:34:35.662Z,0
2017-03-10T02:35:44.748Z,0
2017-03-10T02:36:53.834Z,0
2017-03-10T02:38:03.657Z,0
2017-03-10T02:39:13.509Z,0
2017-03-10T02:40:22.598Z,0
2017-03-10T02:41:32.041Z,0
2017-03-10T02:42:41.491Z,0
2017-03-10T02:43:51.324Z,0
2017-03-10T02:45:01.152Z,0
2017-03-10T02:46:10.242Z,0
2017-03-10T02:47:18.920Z,0
2017-03-10T02:48:28.377Z,0
2017-03-10T02:49:37.432Z,0
2017-03-10T02:50:46.886Z,0
2017-03-10T02:51:56.972Z,0
2017-03-10T02:53:06.076Z,0
2017-03-10T02:54:15.912Z,0
2017-03-10T02:55:25.421Z,0
2017-03-10T02:56:34.895Z,0
2017-03-10T02:57:44.721Z,0
2017-03-10T02:58:53.414Z,0
2017-03-10T03:00:02.853Z,0
2017-03-10T03:01:13.108Z,0
2017-03-10T03:02:23.335Z,0
2017-03-10T03:03:33.555Z,0
2017-03-10T03:04:43.004Z,0
2017-03-10T03:05:52.450Z,0
2017-03-10T03:07:01.529Z,0
2017-03-10T03:08:10.977Z,0
2017-03-10T03:09:20.325Z,0
2017-03-10T03:10:29.775Z,0
2017-03-10T03:11:38.871Z,0
2017-03-10T03:12:48.711Z,0
2017-03-10T03:13:58.588Z,0
2017-03-10T03:15:08.437Z,0
2017-03-10T03:16:17.511Z,0
2017-03-10T03:17:26.620Z,0
2017-03-10T03:18:35.699Z,0
2017-03-10T03:19:45.532Z,0
2017-03-10T03:20:54.597Z,0
2017-03-10T03:22:04.106Z,0
2017-03-10T03:23:13.180Z,0
2017-03-10T03:24:22.262Z,0
2017-03-10T03:25:32.086Z,0
2017-03-10T03:26:41.820Z,0
2017-03-10T03:27:50.906Z,0
2017-03-10T03:29:00.346Z,0
2017-03-10T03:30:09.035Z,0
2017-03-10T03:31:18.102Z,0
2017-03-10T03:32:27.927Z,0
2017-03-10T03:33:36.625Z,0
2017-03-10T03:34:46.066Z,0
2017-03-10T03:35:56.310Z,0
2017-03-10T03:37:06.168Z,0
2017-03-10T03:38:16.384Z,0
2017-03-10T03:39:25.069Z,0
2017-03-10T03:40:34.505Z,0
2017-03-10T03:41:43.580Z,0
2017-03-10T03:42:53.786Z,0
2017-03-10T03:44:03.862Z,0
2017-03-10T03:45:13.707Z,0
2017-03-10T03:46:23.156Z,0
2017-03-10T03:47:32.614Z,0
2017-03-10T03:48:42.062Z,0
2017-03-10T03:49:51.899Z,0
2017-03-10T03:51:00.984Z,0
2017-03-10T03:52:11.200Z,0
2017-03-10T03:53:19.878Z,0
2017-03-10T03:54:28.946Z,0
2017-03-10T03:55:38.643Z,0
2017-03-10T03:56:47.735Z,0
2017-03-10T03:57:57.951Z,0
2017-03-10T03:59:06.645Z,0
2017-03-10T04:00:16.085Z,0
2017-03-10T04:01:25.406Z,0
2017-03-10T04:02:36.002Z,0
2017-03-10T04:03:46.226Z,0
2017-03-10T04:04:55.327Z,0
2017-03-10T04:06:04.394Z,0
2017-03-10T04:07:13.843Z,0
2017-03-10T04:08:22.913Z,0
2017-03-10T04:09:32.371Z,0
2017-03-10T04:10:41.445Z,0
2017-03-10T04:11:51.672Z,0
2017-03-10T04:13:01.491Z,0
2017-03-10T04:14:11.386Z,0
2017-03-10T04:15:20.444Z,0
2017-03-10T04:16:30.289Z,0
2017-03-10T04:17:40.538Z,0
2017-03-10T04:18:51.046Z,0
2017-03-10T04:20:00.138Z,0
2017-03-10T04:21:08.851Z,0
2017-03-10T04:22:17.928Z,0
2017-03-10T04:23:27.383Z,0
2017-03-10T04:24:36.825Z,0
2017-03-10T04:25:45.509Z,0
2017-03-10T04:26:54.972Z,0
2017-03-10T04:28:03.672Z,0
2017-03-10T04:29:12.737Z,0
2017-03-10T04:30:22.214Z,0
2017-03-10T04:31:30.900Z,0
2017-03-10T04:32:40.371Z,0
2017-03-10T04:33:49.824Z,0
2017-03-10T04:34:59.292Z,0
2017-03-10T04:36:09.416Z,0
2017-03-10T04:37:18.117Z,0
2017-03-10T04:38:26.834Z,0
2017-03-10T04:39:36.309Z,0
2017-03-10T04:40:45.784Z,0
2017-03-10T04:41:55.888Z,0
2017-03-10T04:43:05.359Z,0
2017-03-10T04:44:14.825Z,0
2017-03-10T04:45:24.287Z,0
2017-03-10T04:46:33.737Z,0
2017-03-10T04:47:43.572Z,0
2017-03-10T04:48:53.041Z,0
2017-03-10T04:50:02.485Z,0
2017-03-10T04:51:11.564Z,0
2017-03-10T04:52:21.003Z,0
2017-03-10T04:53:30.694Z,0
2017-03-10T04:54:40.158Z,0
2017-03-10T04:55:49.611Z,0
2017-03-10T04:56:59.054Z,0
2017-03-10T04:58:08.504Z,0
2017-03-10T04:59:17.960Z,0
2017-03-10T05:00:27.811Z,0
2017-03-10T05:01:36.907Z,0
2017-03-10T05:02:47.140Z,0
2017-03-10T05:03:56.963Z,0
2017-03-10T05:05:07.037Z,0
2017-03-10T05:06:16.098Z,0
2017-03-10T05:07:25.160Z,0
2017-03-10T05:08:34.242Z,0
2017-03-10T05:09:43.331Z,0
2017-03-10T05:10:52.421Z,0
2017-03-10T05:12:02.251Z,0
2017-03-10T05:13:11.702Z,0
2017-03-10T05:14:20.779Z,0
2017-03-10T05:15:29.477Z,0
2017-03-10T05:16:38.803Z,0
2017-03-10T05:17:47.874Z,0
2017-03-10T05:18:57.336Z,0
2017-03-10T05:20:06.022Z,0
2017-03-10T05:21:15.482Z,0
2017-03-10T05:22:25.331Z,0
2017-03-10T05:23:35.190Z,0
2017-03-10T05:24:45.026Z,0
2017-03-10T05:25:53.717Z,0
2017-03-10T05:27:02.774Z,4
2017-03-10T05:28:12.231Z,4
2017-03-10T05:29:21.699Z,0
2017-03-10T05:30:30.790Z,4
2017-03-10T05:31:39.850Z,4
2017-03-10T05:32:49.310Z,8
2017-03-10T05:33:58.631Z,8
2017-03-10T05:35:08.480Z,8
2017-03-10T05:36:17.546Z,12
2017-03-10T05:37:27.386Z,12
2017-03-10T05:38:36.080Z,20
2017-03-10T05:39:45.926Z,24
2017-03-10T05:40:55.395Z,28
2017-03-10T05:42:04.491Z,36
2017-03-10T05:43:13.557Z,44
2017-03-10T05:44:22.640Z,56
2017-03-10T05:45:32.742Z,68
2017-03-10T05:46:41.831Z,80
2017-03-10T05:47:51.684Z,96
2017-03-10T05:49:01.136Z,116
2017-03-10T05:50:10.975Z,132
2017-03-10T05:51:20.065Z,156
2017-03-10T05:52:29.522Z,184
2017-03-10T05:53:40.126Z,216
2017-03-10T05:54:49.582Z,252
2017-03-10T05:55:59.423Z,288
2017-03-10T05:57:09.905Z,328
2017-03-10T05:58:19.362Z,376
2017-03-10T05:59:28.813Z,424
2017-03-10T06:00:38.276Z,472
2017-03-10T06:01:47.345Z,528
2017-03-10T06:02:56.805Z,584
2017-03-10T06:04:06.650Z,644
2017-03-10T06:05:16.482Z,708
2017-03-10T06:06:25.557Z,776
2017-03-10T06:07:34.665Z,844
2017-03-10T06:08:44.111Z,912
2017-03-10T06:09:53.557Z,988
2017-03-10T06:11:03.414Z,1064
2017-03-10T06:12:12.916Z,1140
2017-03-10T06:13:22.761Z,1220
2017-03-10T06:14:32.459Z,1300
2017-03-10T06:15:41.528Z,1380
2017-03-10T06:16:50.605Z,1464
2017-03-10T06:17:59.692Z,1544
2017-03-10T06:19:09.550Z,1628
2017-03-10T06:20:18.625Z,1708
2017-03-10T06:21:27.724Z,1796
2017-03-10T06:22:37.191Z,1880
2017-03-10T06:23:46.262Z,1972
2017-03-10T06:24:55.323Z,2056
2017-03-10T06:26:05.037Z,2156
2017-03-10T06:27:14.504Z,2240
2017-03-10T06:28:23.574Z,2316
2017-03-10T06:29:33.046Z,2408
2017-03-10T06:30:42.126Z,2496
2017-03-10T06:31:51.583Z,2584
2017-03-10T06:33:01.087Z,2672
2017-03-10T06:34:10.156Z,2764
2017-03-10T06:35:19.607Z,2852
2017-03-10T06:36:28.674Z,2956
2017-03-10T06:37:37.995Z,3040
2017-03-10T06:38:46.670Z,3124
2017-03-10T06:39:55.741Z,3220
2017-03-10T06:41:05.195Z,3256
2017-03-10T06:42:14.269Z,3328
2017-03-10T06:43:23.727Z,3408
2017-03-10T06:44:33.183Z,3476
2017-03-10T06:45:42.632Z,3544
2017-03-10T06:46:51.697Z,3608
2017-03-10T06:48:01.162Z,3692
2017-03-10T06:49:10.853Z,3820
2017-03-10T06:50:20.295Z,3920
2017-03-10T06:51:30.131Z,4292
2017-03-10T06:52:39.588Z,4136
2017-03-10T06:53:48.671Z,4240
2017-03-10T06:54:58.125Z,4532
2017-03-10T06:56:07.604Z,4732
2017-03-10T06:57:17.070Z,4652
2017-03-10T06:58:26.901Z,4920
2017-03-10T06:59:36.349Z,5048
2017-03-10T07:00:46.121Z,5032
2017-03-10T07:01:55.581Z,4932
2017-03-10T07:03:05.408Z,5248
2017-03-10T07:04:15.242Z,5444
2017-03-10T07:05:25.474Z,5724
2017-03-10T07:06:34.543Z,5428
2017-03-10T07:07:44.006Z,5620
2017-03-10T07:08:52.708Z,5820
2017-03-10T07:10:02.206Z,5752
2017-03-10T07:11:12.047Z,6596
2017-03-10T07:12:21.752Z,6464
2017-03-10T07:13:30.819Z,6216
2017-03-10T07:14:40.272Z,6508
2017-03-10T07:15:49.738Z,5848
2017-03-10T07:16:59.198Z,5592
2017-03-10T07:18:09.071Z,5344
2017-03-10T07:19:19.274Z,5152
2017-03-10T07:20:27.951Z,4776
2017-03-10T07:21:37.048Z,5240
2017-03-10T07:22:46.493Z,5488
2017-03-10T07:23:56.331Z,5812
2017-03-10T07:25:05.416Z,5728
2017-03-10T07:26:14.869Z,5352
2017-03-10T07:27:23.552Z,5636
2017-03-10T07:28:33.033Z,5804
2017-03-10T07:29:43.146Z,5452
2017-03-10T07:30:51.843Z,5152
2017-03-10T07:32:00.928Z,4960
2017-03-10T07:33:10.758Z,5752
2017-03-10T07:34:19.835Z,5984
2017-03-10T07:35:30.071Z,5324
2017-03-10T07:36:39.149Z,5528
2017-03-10T07:37:48.242Z,5472
2017-03-10T07:38:57.713Z,5920
2017-03-10T07:40:06.800Z,7232
2017-03-10T07:41:16.962Z,8500
2017-03-10T07:42:26.418Z,7780
2017-03-10T07:43:35.505Z,7984
2017-03-10T07:44:44.970Z,7764
2017-03-10T07:45:54.808Z,8992
2017-03-10T07:47:04.273Z,9180
2017-03-10T07:48:13.344Z,9324
2017-03-10T07:49:22.798Z,11012
2017-03-10T07:50:32.289Z,10368
2017-03-10T07:51:42.134Z,10476
2017-03-10T07:52:51.582Z,9876
2017-03-10T07:54:01.796Z,9400
2017-03-10T07:55:11.269Z,10352
2017-03-10T07:56:20.330Z,10448
2017-03-10T07:57:30.184Z,11172
2017-03-10T07:58:39.684Z,9976
2017-03-10T07:59:49.148Z,10756
2017-03-10T08:00:58.601Z,10756
2017-03-10T08:02:07.305Z,11844
2017-03-10T08:03:16.761Z,9684
2017-03-10T08:04:26.126Z,9716
2017-03-10T08:05:35.204Z,9944
2017-03-10T08:06:44.279Z,9804
2017-03-10T08:07:54.507Z,10956
2017-03-10T08:09:03.969Z,11188
2017-03-10T08:10:13.078Z,11748
2017-03-10T08:11:22.563Z,11612
2017-03-10T08:12:32.387Z,9116
2017-03-10T08:13:41.881Z,10880
2017-03-10T08:14:50.958Z,15136
2017-03-10T08:16:00.418Z,13852
2017-03-10T08:17:09.149Z,13496
2017-03-10T08:18:17.832Z,13720
2017-03-10T08:19:27.451Z,11356
2017-03-10T08:20:36.980Z,12572
2017-03-10T08:21:47.981Z,17952
2017-03-10T08:22:58.847Z,16000
2017-03-10T08:24:07.988Z,15208
2017-03-10T08:25:17.714Z,15012
2017-03-10T08:26:27.555Z,15792
2017-03-10T08:27:36.658Z,16552
2017-03-10T08:28:46.168Z,14440
2017-03-10T08:29:55.638Z,13532
2017-03-10T08:31:05.666Z,12128
2017-03-10T08:32:14.820Z,12396
2017-03-10T08:33:24.299Z,13736
2017-03-10T08:34:33.401Z,18272
2017-03-10T08:35:43.235Z,22464
2017-03-10T08:36:52.361Z,25472
2017-03-10T08:38:02.287Z,24320
2017-03-10T08:39:11.825Z,22112
2017-03-10T08:40:20.548Z,16152
2017-03-10T08:41:30.025Z,15976
2017-03-10T08:42:39.890Z,18240
2017-03-10T08:43:49.383Z,16376
2017-03-10T08:44:59.838Z,17504
2017-03-10T08:46:08.970Z,15804
2017-03-10T08:47:18.023Z,13720
2017-03-10T08:48:26.738Z,14116
2017-03-10T08:49:35.854Z,13252
2017-03-10T08:50:45.722Z,12384
2017-03-10T08:51:54.808Z,12660
2017-03-10T08:53:03.944Z,14764
2017-03-10T08:54:13.790Z,16652
2017-03-10T08:55:22.483Z,16752
2017-03-10T08:56:32.554Z,19552
2017-03-10T08:57:41.631Z,18016
2017-03-10T08:58:50.733Z,14396
2017-03-10T08:59:59.843Z,13268
2017-03-10T09:01:09.706Z,11876
2017-03-10T09:02:18.791Z,12484
2017-03-10T09:03:28.269Z,12852
2017-03-10T09:04:36.976Z,14860
2017-03-10T09:05:46.058Z,19648
2017-03-10T09:06:55.561Z,19008
2017-03-10T09:08:05.285Z,15912
2017-03-10T09:09:14.746Z,16820
2017-03-10T09:10:24.223Z,17792
2017-03-10T09:11:34.079Z,17952
2017-03-10T09:12:43.160Z,22528
2017-03-10T09:13:53.002Z,22592
2017-03-10T09:15:02.902Z,22912
2017-03-10T09:16:12.357Z,23104
2017-03-10T09:17:22.210Z,22080
2017-03-10T09:18:30.901Z,21888
2017-03-10T09:19:40.269Z,20000
2017-03-10T09:20:49.737Z,16548
2017-03-10T09:21:58.433Z,13592
2017-03-10T09:23:07.912Z,12200
2017-03-10T09:24:17.412Z,12036
2017-03-10T09:25:27.521Z,18400
2017-03-10T09:26:36.613Z,17488
2017-03-10T09:27:46.913Z,18592
2017-03-10T09:28:56.376Z,17536
2017-03-10T09:30:06.220Z,19808
2017-03-10T09:31:16.316Z,23840
2017-03-10T09:32:25.803Z,25088
2017-03-10T09:33:35.269Z,23264
2017-03-10T09:34:45.551Z,24000
2017-03-10T09:35:55.401Z,32960
2017-03-10T09:37:04.863Z,34272
2017-03-10T09:38:13.944Z,26752
2017-03-10T09:39:24.172Z,17888
2017-03-10T09:40:33.241Z,22016
2017-03-10T09:41:43.076Z,22592
2017-03-10T09:42:53.552Z,21952
2017-03-10T09:44:02.635Z,25152
2017-03-10T09:45:12.113Z,23936
2017-03-10T09:46:20.807Z,28896
2017-03-10T09:47:29.901Z,28864
2017-03-10T09:48:38.970Z,25440
2017-03-10T09:49:48.042Z,22784
2017-03-10T09:50:57.125Z,20416
2017-03-10T09:52:06.968Z,19456
2017-03-10T09:53:16.425Z,18688
2017-03-10T09:54:25.813Z,18976
2017-03-10T09:55:34.916Z,20192
2017-03-10T09:56:44.822Z,20224
2017-03-10T09:57:54.737Z,21440
2017-03-10T09:59:05.284Z,23712
2017-03-10T10:00:14.370Z,23872
2017-03-10T10:01:24.213Z,22176
2017-03-10T10:02:33.429Z,19808
2017-03-10T10:03:42.962Z,19328
2017-03-10T10:04:52.433Z,19552
2017-03-10T10:06:02.134Z,19424
2017-03-10T10:07:11.985Z,19072
2017-03-10T10:08:21.449Z,18064
2017-03-10T10:09:30.531Z,16528
2017-03-10T10:10:40.005Z,16068
2017-03-10T10:11:49.482Z,14648
2017-03-10T10:12:59.706Z,13488
2017-03-10T10:14:08.800Z,13404
2017-03-10T10:15:17.872Z,13256
2017-03-10T10:16:27.351Z,13236
2017-03-10T10:17:37.092Z,13048
2017-03-10T10:18:46.550Z,12872
2017-03-10T10:19:55.269Z,13036
2017-03-10T10:21:05.158Z,13880
2017-03-10T10:22:14.234Z,15276
2017-03-10T10:23:23.310Z,15044
2017-03-10T10:24:32.771Z,14424
2017-03-10T10:25:42.279Z,14216
2017-03-10T10:26:51.784Z,13600
2017-03-10T10:28:00.849Z,15072
2017-03-10T10:29:09.556Z,16708
2017-03-10T10:30:18.662Z,17984
2017-03-10T10:31:27.749Z,18368
2017-03-10T10:32:37.221Z,17328
2017-03-10T10:33:46.327Z,14884
2017-03-10T10:34:55.692Z,14296
2017-03-10T10:36:05.145Z,14380
2017-03-10T10:37:14.249Z,14444
2017-03-10T10:38:23.721Z,14112
2017-03-10T10:39:32.806Z,14436
2017-03-10T10:40:42.266Z,15628
2017-03-10T10:41:52.134Z,16416
2017-03-10T10:43:01.593Z,16220
2017-03-10T10:44:11.843Z,16276
2017-03-10T10:45:20.927Z,16708
2017-03-10T10:46:30.258Z,17660
2017-03-10T10:47:39.742Z,18016
2017-03-10T10:48:49.231Z,19488
2017-03-10T10:49:58.687Z,20256
2017-03-10T10:51:07.789Z,19808
2017-03-10T10:52:16.865Z,16636
2017-03-10T10:53:25.948Z,14884
2017-03-10T10:54:34.683Z,14528
2017-03-10T10:55:44.147Z,14780
2017-03-10T10:56:54.387Z,16068
2017-03-10T10:58:04.162Z,17256
2017-03-10T10:59:13.245Z,18720
2017-03-10T11:00:22.336Z,20992
2017-03-10T11:01:31.418Z,21760
2017-03-10T11:02:40.880Z,21728
2017-03-10T11:03:50.348Z,21696
2017-03-10T11:05:00.245Z,21824
2017-03-10T11:06:09.342Z,22848
2017-03-10T11:07:18.818Z,23008
2017-03-10T11:08:27.930Z,23296
2017-03-10T11:09:37.283Z,23680
2017-03-10T11:10:46.758Z,24256
2017-03-10T11:11:55.845Z,23680
2017-03-10T11:13:05.308Z,24832
2017-03-10T11:14:14.018Z,27936
2017-03-10T11:15:23.090Z,30400
2017-03-10T11:16:32.953Z,30592
2017-03-10T11:17:42.045Z,28448
2017-03-10T11:18:51.133Z,23360
2017-03-10T11:20:00.641Z,18048
2017-03-10T11:21:10.417Z,14092
2017-03-10T11:22:19.505Z,11284
2017-03-10T11:23:28.627Z,10764
2017-03-10T11:24:37.326Z,10656
2017-03-10T11:25:47.274Z,10560
2017-03-10T11:26:55.972Z,10588
2017-03-10T11:28:06.194Z,10236
2017-03-10T11:29:15.286Z,9672
2017-03-10T11:30:24.751Z,9612
2017-03-10T11:31:34.212Z,9512
2017-03-10T11:32:43.564Z,9308
2017-03-10T11:33:53.027Z,9036
2017-03-10T11:35:02.481Z,8884
2017-03-10T11:36:11.978Z,8840
2017-03-10T11:37:21.461Z,8904
2017-03-10T11:38:31.302Z,9004
2017-03-10T11:39:41.520Z,8984
2017-03-10T11:40:51.023Z,9036
2017-03-10T11:42:00.515Z,9120
2017-03-10T11:43:09.964Z,8992
2017-03-10T11:44:19.279Z,8868
2017-03-10T11:45:28.390Z,9072
2017-03-10T11:46:37.084Z,9196
2017-03-10T11:47:46.161Z,9296
2017-03-10T11:48:54.853Z,9344
2017-03-10T11:50:04.333Z,9348
2017-03-10T11:51:13.420Z,9280
2017-03-10T11:52:23.272Z,9036
2017-03-10T11:53:32.749Z,9024
2017-03-10T11:54:42.222Z,8944
2017-03-10T11:55:52.009Z,8836
2017-03-10T11:57:01.086Z,8876
2017-03-10T11:58:10.544Z,9048
2017-03-10T11:59:20.381Z,9076
2017-03-10T12:00:29.487Z,8868
2017-03-10T12:01:38.933Z,8656
2017-03-10T12:02:47.641Z,8504
2017-03-10T12:03:57.103Z,8388
2017-03-10T12:05:06.562Z,8344
2017-03-10T12:06:15.646Z,8248
2017-03-10T12:07:25.006Z,8192
2017-03-10T12:08:34.465Z,8188
2017-03-10T12:09:43.155Z,8228
2017-03-10T12:10:53.012Z,8400
2017-03-10T12:12:02.112Z,9180
2017-03-10T12:13:11.971Z,9524
2017-03-10T12:14:21.059Z,9644
2017-03-10T12:15:30.913Z,9776
2017-03-10T12:16:40.364Z,9788
2017-03-10T12:17:50.209Z,9252
2017-03-10T12:19:00.307Z,9960
2017-03-10T12:20:09.780Z,10708
2017-03-10T12:21:19.604Z,11256
2017-03-10T12:22:29.089Z,11456
2017-03-10T12:23:38.552Z,11128
2017-03-10T12:24:48.034Z,9944
2017-03-10T12:25:57.484Z,8688
2017-03-10T12:27:06.572Z,8232
2017-03-10T12:28:15.643Z,8248
2017-03-10T12:29:24.726Z,8684
2017-03-10T12:30:34.446Z,9076
2017-03-10T12:31:43.927Z,9324
2017-03-10T12:32:53.771Z,9452
2017-03-10T12:34:03.628Z,9588
2017-03-10T12:35:13.104Z,9644
2017-03-10T12:36:22.178Z,10032
2017-03-10T12:37:31.648Z,10600
2017-03-10T12:38:41.115Z,11428
2017-03-10T12:39:51.333Z,12580
2017-03-10T12:41:01.028Z,13476
2017-03-10T12:42:11.327Z,14232
2017-03-10T12:43:21.172Z,14916
2017-03-10T12:44:29.852Z,15256
2017-03-10T12:45:40.088Z,15548
2017-03-10T12:46:49.672Z,15848
2017-03-10T12:47:59.639Z,15936
2017-03-10T12:49:09.064Z,15624
2017-03-10T12:50:18.532Z,15520
2017-03-10T12:51:28.220Z,15852
2017-03-10T12:52:38.318Z,16016
2017-03-10T12:53:48.620Z,15932
2017-03-10T12:54:57.708Z,15932
2017-03-10T12:56:07.162Z,15440
2017-03-10T12:57:16.634Z,15104
2017-03-10T12:58:26.090Z,14796
2017-03-10T12:59:35.164Z,14068
2017-03-10T13:00:43.853Z,13936
2017-03-10T13:01:53.704Z,13908
2017-03-10T13:03:02.404Z,13476
2017-03-10T13:04:11.858Z,13352
2017-03-10T13:05:21.226Z,13608
2017-03-10T13:06:30.689Z,13996
2017-03-10T13:07:39.760Z,14688
2017-03-10T13:08:48.847Z,15464
2017-03-10T13:09:59.062Z,16340
2017-03-10T13:11:08.786Z,17004
2017-03-10T13:12:18.258Z,17336
2017-03-10T13:13:27.728Z,17444
2017-03-10T13:14:37.195Z,17168
2017-03-10T13:15:46.295Z,16480
2017-03-10T13:16:55.810Z,15668
2017-03-10T13:18:05.320Z,14840
2017-03-10T13:19:14.787Z,14280
2017-03-10T13:20:24.630Z,14636
2017-03-10T13:21:34.098Z,14624
2017-03-10T13:22:43.473Z,14360
2017-03-10T13:23:52.540Z,13876
2017-03-10T13:25:01.634Z,13488
2017-03-10T13:26:11.479Z,13244
2017-03-10T13:27:20.554Z,13248
2017-03-10T13:28:29.628Z,13220
2017-03-10T13:29:39.088Z,13044
2017-03-10T13:30:48.937Z,12928
2017-03-10T13:31:58.793Z,13100
2017-03-10T13:33:08.661Z,13424
2017-03-10T13:34:17.804Z,13672
2017-03-10T13:35:27.650Z,14012
2017-03-10T13:36:36.737Z,14672
2017-03-10T13:37:46.605Z,15064
2017-03-10T13:38:56.065Z,15156
2017-03-10T13:40:05.143Z,14880
2017-03-10T13:41:14.208Z,15252
2017-03-10T13:42:23.678Z,15328
2017-03-10T13:43:33.134Z,15588
2017-03-10T13:44:42.603Z,15664
2017-03-10T13:45:51.692Z,15852
2017-03-10T13:47:00.789Z,15980
2017-03-10T13:48:10.643Z,16932
2017-03-10T13:49:20.505Z,18592
2017-03-10T13:50:30.339Z,19936
2017-03-10T13:51:39.693Z,20544
2017-03-10T13:52:49.164Z,19776
2017-03-10T13:53:58.626Z,18688
2017-03-10T13:55:08.481Z,17852
2017-03-10T13:56:17.573Z,18560
2017-03-10T13:57:27.051Z,19776
2017-03-10T13:58:36.889Z,20768
2017-03-10T13:59:45.987Z,21984
2017-03-10T14:00:55.450Z,22464
2017-03-10T14:02:05.305Z,22848
2017-03-10T14:03:14.616Z,23168
2017-03-10T14:04:24.456Z,23360
2017-03-10T14:05:33.956Z,23648
2017-03-10T14:06:43.412Z,23840
2017-03-10T14:07:52.871Z,24032
2017-03-10T14:09:01.574Z,24256
2017-03-10T14:10:10.681Z,24352
2017-03-10T14:11:19.372Z,24256
2017-03-10T14:12:28.830Z,24096
2017-03-10T14:13:37.550Z,24000
2017-03-10T14:14:47.029Z,23872
2017-03-10T14:15:56.491Z,23872
2017-03-10T14:17:05.574Z,23904
2017-03-10T14:18:14.644Z,23968
2017-03-10T14:19:24.875Z,24128
2017-03-10T14:20:34.328Z,24224
2017-03-10T14:21:43.807Z,24096
2017-03-10T14:22:54.162Z,23776
2017-03-10T14:24:04.149Z,23520
2017-03-10T14:25:13.255Z,23296
2017-03-10T14:26:21.958Z,23520
2017-03-10T14:27:32.055Z,23872
2017-03-10T14:28:41.136Z,24288
2017-03-10T14:29:50.234Z,24544
2017-03-10T14:30:59.698Z,24704
2017-03-10T14:32:08.541Z,24768
2017-03-10T14:33:18.229Z,24672
2017-03-10T14:34:27.756Z,24192
2017-03-10T14:35:37.324Z,23680
2017-03-10T14:36:47.049Z,23424
2017-03-10T14:37:56.042Z,23392
2017-03-10T14:39:05.537Z,23552
2017-03-10T14:40:14.611Z,23776
2017-03-10T14:41:24.460Z,23744
2017-03-10T14:42:33.922Z,23488
2017-03-10T14:43:43.783Z,23200
2017-03-10T14:44:53.250Z,22848
2017-03-10T14:46:01.993Z,22496
2017-03-10T14:47:11.108Z,22336
2017-03-10T14:48:20.572Z,22240
2017-03-10T14:49:30.707Z,22048
2017-03-10T14:50:39.429Z,21696
2017-03-10T14:51:48.513Z,21408
2017-03-10T14:52:57.584Z,21056
2017-03-10T14:54:06.663Z,20640
2017-03-10T14:55:15.740Z,20160
2017-03-10T14:56:25.218Z,19712
2017-03-10T14:57:35.087Z,19520
2017-03-10T14:58:44.167Z,19296
2017-03-10T14:59:53.651Z,19168
2017-03-10T15:01:03.750Z,18912
2017-03-10T15:02:12.830Z,18944
2017-03-10T15:03:21.526Z,18880
2017-03-10T15:04:30.619Z,18880
2017-03-10T15:05:40.097Z,18944
2017-03-10T15:06:49.562Z,19168
2017-03-10T15:07:58.286Z,19296
2017-03-10T15:09:07.359Z,19456
2017-03-10T15:10:16.968Z,19776
2017-03-10T15:11:26.161Z,20256
2017-03-10T15:12:35.271Z,20960
2017-03-10T15:13:44.362Z,21792
2017-03-10T15:14:53.086Z,22592
2017-03-10T15:16:02.173Z,24224
2017-03-10T15:17:11.294Z,26048
2017-03-10T15:18:20.782Z,28960
2017-03-10T15:19:30.251Z,48768
2017-03-10T15:20:39.340Z,44576
2017-03-10T15:21:48.818Z,45120
2017-03-10T15:22:58.306Z,45408
2017-03-10T15:24:08.768Z,49312
2017-03-10T15:25:18.630Z,48096
2017-03-10T15:26:28.507Z,46880
2017-03-10T15:27:38.021Z,44352
2017-03-10T15:28:47.507Z,45344
2017-03-10T15:29:56.983Z,45408
2017-03-10T15:31:06.465Z,37024
2017-03-10T15:32:15.930Z,40416
2017-03-10T15:33:25.037Z,36832
2017-03-10T15:34:34.514Z,33984
2017-03-10T15:35:43.988Z,36224
2017-03-10T15:36:53.459Z,35776
2017-03-10T15:38:02.942Z,43424
2017-03-10T15:39:12.035Z,39424
2017-03-10T15:40:20.732Z,39936
2017-03-10T15:41:30.448Z,35392
2017-03-10T15:42:39.177Z,28416
2017-03-10T15:43:48.644Z,27840
2017-03-10T15:44:57.755Z,38240
2017-03-10T15:46:07.606Z,33888